createdAt,value
2022-09-06T00:02:12.309Z,2.08
2022-09-06T00:04:39.362Z,2.00
2022-09-06T00:07:06.472Z,2.00
2022-09-06T00:09:33.567Z,2.00
2022-09-06T00:12:00.715Z,2.42
2022-09-06T00:14:27.782Z,2.00
2022-09-06T00:16:54.865Z,1.90
2022-09-06T00:19:21.950Z,2.00
2022-09-06T00:21:49.007Z,2.00
2022-09-06T00:24:16.368Z,2.10
2022-09-06T00:26:43.461Z,2.00
2022-09-06T00:29:10.572Z,2.20
2022-09-06T00:31:37.697Z,1.90
2022-09-06T00:34:04.810Z,2.25
2022-09-06T00:36:31.935Z,2.03
2022-09-06T00:38:59.065Z,1.90
2022-09-06T00:41:26.196Z,2.03
2022-09-06T00:43:53.299Z,2.03
2022-09-06T00:46:20.444Z,1.90
2022-09-06T00:48:47.586Z,2.10
2022-09-06T00:51:14.648Z,2.10
2022-09-06T00:53:41.745Z,2.05
2022-09-06T00:56:08.826Z,1.85
2022-09-06T00:58:35.938Z,1.90
2022-09-06T01:01:03.055Z,2.08
2022-09-06T01:03:30.094Z,2.05
2022-09-06T01:05:57.213Z,2.13
2022-09-06T01:08:24.297Z,2.10
2022-09-06T01:10:51.407Z,2.20
2022-09-06T01:13:18.645Z,2.05
2022-09-06T01:15:45.785Z,2.28
2022-09-06T01:18:12.890Z,1.92
2022-09-06T01:20:41.844Z,2.05
2022-09-06T01:23:08.915Z,2.15
2022-09-06T01:25:36.039Z,2.00
2022-09-06T01:28:03.283Z,2.10
2022-09-06T01:30:30.321Z,2.10
2022-09-06T01:32:57.182Z,2.00
2022-09-06T01:35:24.233Z,1.98
2022-09-06T01:37:51.320Z,2.13
2022-09-06T01:40:18.445Z,2.10
2022-09-06T01:42:45.539Z,2.00
2022-09-06T01:45:12.575Z,2.35
2022-09-06T01:47:41.251Z,2.08
2022-09-06T01:50:08.337Z,2.33
2022-09-06T01:52:35.436Z,2.03
2022-09-06T01:55:02.486Z,2.20
2022-09-06T01:57:29.587Z,2.00
2022-09-06T01:59:56.773Z,2.10
2022-09-06T02:02:23.909Z,2.10
2022-09-06T02:04:51.069Z,2.30
2022-09-06T02:07:18.182Z,2.13
2022-09-06T02:09:45.257Z,2.25
2022-09-06T02:12:15.319Z,2.15
2022-09-06T02:14:42.398Z,2.20
2022-09-06T02:17:09.681Z,2.20
2022-09-06T02:19:36.964Z,2.10
2022-09-06T02:22:04.059Z,2.20
2022-09-06T02:24:31.142Z,2.30
2022-09-06T02:26:58.256Z,2.22
2022-09-06T02:29:25.576Z,2.20
2022-09-06T02:31:52.635Z,2.20
2022-09-06T02:34:19.720Z,2.17
2022-09-06T02:36:46.787Z,2.47
2022-09-06T02:39:13.879Z,2.30
2022-09-06T02:41:41.086Z,2.28
2022-09-06T02:44:08.480Z,2.28
2022-09-06T02:46:35.531Z,2.30
2022-09-06T02:49:03.909Z,2.03
2022-09-06T02:51:31.121Z,2.20
2022-09-06T02:53:58.192Z,2.60
2022-09-06T02:56:25.270Z,2.25
2022-09-06T02:58:52.350Z,2.58
2022-09-06T03:01:19.450Z,2.08
2022-09-06T03:03:46.636Z,2.10
2022-09-06T03:06:13.720Z,2.33
2022-09-06T03:08:40.798Z,2.47
2022-09-06T03:11:07.886Z,2.40
2022-09-06T03:13:34.959Z,2.25
2022-09-06T03:16:02.085Z,2.20
2022-09-06T03:18:29.289Z,2.30
2022-09-06T03:20:56.474Z,2.28
2022-09-06T03:23:23.996Z,2.35
2022-09-06T03:25:51.067Z,2.40
2022-09-06T03:28:18.448Z,2.25
2022-09-06T03:30:45.562Z,2.30
2022-09-06T03:33:12.932Z,2.35
2022-09-06T03:35:39.982Z,2.35
2022-09-06T03:38:07.074Z,2.25
2022-09-06T03:40:34.152Z,2.20
2022-09-06T03:43:01.204Z,2.30
2022-09-06T03:45:28.316Z,2.45
2022-09-06T03:47:55.430Z,2.50
2022-09-06T03:50:22.478Z,2.47
2022-09-06T03:52:49.599Z,2.47
2022-09-06T03:55:16.749Z,2.33
2022-09-06T03:57:43.815Z,2.50
2022-09-06T04:00:10.866Z,2.50
2022-09-06T04:02:37.956Z,2.20
2022-09-06T04:05:05.110Z,2.55
2022-09-06T04:07:32.173Z,2.60
2022-09-06T04:09:59.241Z,2.75
2022-09-06T04:12:26.368Z,2.50
2022-09-06T04:14:53.415Z,2.50
2022-09-06T04:17:20.512Z,2.50
2022-09-06T04:19:47.613Z,2.88
2022-09-06T04:22:14.683Z,2.50
2022-09-06T04:24:41.759Z,2.50
2022-09-06T04:27:08.915Z,2.60
2022-09-06T04:29:36.004Z,2.65
2022-09-06T04:32:03.100Z,2.30
2022-09-06T04:34:30.247Z,2.60
2022-09-06T04:36:57.610Z,2.70
2022-09-06T04:39:24.874Z,2.80
2022-09-06T04:41:52.011Z,2.83
2022-09-06T04:44:19.061Z,2.60
2022-09-06T04:46:46.121Z,2.70
2022-09-06T04:49:13.207Z,2.80
2022-09-06T04:51:40.400Z,2.63
2022-09-06T04:54:07.522Z,2.88
2022-09-06T04:56:34.703Z,2.65
2022-09-06T04:59:01.881Z,2.80
2022-09-06T05:01:38.228Z,2.96
2022-09-06T05:04:05.288Z,2.58
2022-09-06T05:06:32.354Z,2.85
2022-09-06T05:08:59.453Z,2.83
2022-09-06T05:11:26.531Z,2.80
2022-09-06T05:13:53.684Z,3.00
2022-09-06T05:16:20.781Z,2.60
2022-09-06T05:18:47.888Z,3.10
2022-09-06T05:21:15.875Z,3.08
2022-09-06T05:23:42.917Z,3.10
2022-09-06T05:26:09.946Z,3.03
2022-09-06T05:28:37.049Z,2.90
2022-09-06T05:31:04.118Z,2.90
2022-09-06T05:33:31.166Z,2.90
2022-09-06T05:35:58.223Z,3.10
2022-09-06T05:38:29.537Z,2.95
2022-09-06T05:40:56.800Z,2.90
2022-09-06T05:43:23.908Z,3.10
2022-09-06T05:45:51.025Z,2.90
2022-09-06T05:48:19.199Z,3.30
2022-09-06T05:50:46.306Z,3.25
2022-09-06T05:53:13.352Z,3.10
2022-09-06T05:55:43.045Z,3.25
2022-09-06T05:58:10.486Z,3.30
2022-09-06T06:00:37.637Z,3.20
2022-09-06T06:03:04.671Z,3.20
2022-09-06T06:05:31.709Z,3.47
2022-09-06T06:07:59.659Z,3.10
2022-09-06T06:10:26.707Z,3.47
2022-09-06T06:12:53.761Z,3.30
2022-09-06T06:15:20.818Z,3.50
2022-09-06T06:17:47.872Z,3.10
2022-09-06T06:20:14.958Z,3.28
2022-09-06T06:22:41.989Z,3.50
2022-09-06T06:25:09.051Z,3.47
2022-09-06T06:27:37.176Z,3.47
2022-09-06T06:30:04.930Z,3.50
2022-09-06T06:32:32.175Z,3.75
2022-09-06T06:34:59.210Z,3.42
2022-09-06T06:37:26.255Z,3.60
2022-09-06T06:39:53.432Z,3.47
2022-09-06T06:42:20.598Z,3.22
2022-09-06T06:44:47.640Z,3.53
2022-09-06T06:47:14.715Z,3.50
2022-09-06T06:49:41.759Z,3.63
2022-09-06T06:52:08.795Z,3.40
2022-09-06T06:54:37.434Z,3.40
2022-09-06T06:57:04.582Z,3.30
2022-09-06T06:59:31.631Z,3.65
2022-09-06T07:01:58.818Z,3.42
2022-09-06T07:04:25.955Z,3.70
2022-09-06T07:12:27.314Z,3.50
2022-09-06T07:14:54.585Z,3.38
2022-09-06T07:17:21.627Z,3.63
2022-09-06T07:22:35.703Z,3.60
2022-09-06T07:25:02.758Z,3.45
2022-09-06T07:30:12.153Z,3.67
2022-09-06T07:32:39.199Z,3.80
2022-09-06T07:35:06.250Z,3.60
2022-09-06T07:37:33.312Z,3.70
2022-09-06T07:40:00.722Z,3.70
2022-09-06T07:42:27.858Z,3.78
2022-09-06T07:44:57.762Z,3.83
2022-09-06T07:55:33.058Z,4.10
2022-09-06T07:58:00.151Z,4.00
2022-09-06T08:00:27.319Z,3.90
2022-09-06T08:02:54.442Z,3.95
2022-09-06T08:10:55.572Z,4.13
2022-09-06T08:13:22.636Z,4.00
2022-09-06T08:15:49.689Z,3.83
2022-09-06T08:18:16.747Z,3.90
2022-09-06T08:20:43.802Z,4.22
2022-09-06T08:23:10.844Z,3.92
2022-09-06T08:25:37.881Z,3.85
2022-09-06T08:28:04.915Z,4.20
2022-09-06T08:30:32.081Z,4.32
2022-09-06T08:33:01.639Z,4.35
2022-09-06T08:35:28.679Z,4.40
2022-09-06T08:37:55.739Z,4.38
2022-09-06T08:40:23.999Z,4.20
2022-09-06T08:42:51.029Z,4.10
2022-09-06T08:45:19.447Z,4.10
2022-09-06T08:47:46.554Z,4.68
2022-09-06T08:50:13.603Z,4.22
2022-09-06T08:52:49.486Z,4.18
2022-09-06T08:55:27.153Z,4.10
2022-09-06T08:57:54.229Z,4.03
2022-09-06T09:00:21.314Z,4.10
2022-09-06T09:02:48.463Z,4.10
2022-09-06T09:05:15.526Z,4.25
2022-09-06T09:07:42.582Z,4.10
2022-09-06T09:10:09.651Z,4.10
2022-09-06T09:12:36.729Z,4.30
2022-09-06T09:15:03.836Z,4.20
2022-09-06T09:17:30.960Z,3.90
2022-09-06T09:19:58.023Z,4.00
2022-09-06T09:22:25.227Z,4.10
2022-09-06T09:24:52.836Z,3.92
2022-09-06T09:27:19.907Z,4.40
2022-09-06T09:32:34.013Z,4.10
2022-09-06T09:35:01.071Z,4.20
2022-09-06T09:40:15.254Z,3.90
2022-09-06T09:42:42.307Z,4.20
2022-09-06T09:45:09.364Z,4.22
2022-09-06T09:47:36.425Z,4.47
2022-09-06T09:50:03.458Z,4.10
2022-09-06T09:52:31.007Z,4.43
2022-09-06T09:54:58.193Z,4.20
2022-09-06T09:57:25.319Z,4.15
2022-09-06T09:59:52.407Z,4.30
2022-09-06T10:02:19.459Z,3.97
2022-09-06T10:04:46.810Z,4.32
2022-09-06T10:07:13.920Z,4.18
2022-09-06T10:09:40.988Z,4.32
2022-09-06T10:12:08.044Z,4.53
2022-09-06T10:14:35.088Z,4.32
2022-09-06T10:17:02.196Z,4.68
2022-09-06T10:19:29.256Z,4.10
2022-09-06T10:21:56.335Z,4.10
2022-09-06T10:27:10.362Z,4.07
2022-09-06T10:29:37.441Z,4.15
2022-09-06T10:32:04.508Z,4.03
2022-09-06T10:34:31.576Z,4.38
2022-09-06T10:36:58.724Z,4.35
2022-09-06T10:39:26.105Z,4.05
2022-09-06T10:41:53.192Z,4.28
2022-09-06T10:44:20.240Z,4.25
2022-09-06T10:46:47.405Z,4.15
2022-09-06T10:49:14.774Z,3.90
2022-09-06T10:51:41.811Z,4.45
2022-09-06T10:54:08.886Z,4.10
2022-09-06T10:56:36.043Z,4.03
2022-09-06T11:01:50.269Z,4.05
2022-09-06T11:04:20.189Z,3.83
2022-09-06T11:06:47.240Z,4.45
2022-09-06T11:09:14.293Z,4.15
2022-09-06T11:11:42.768Z,4.20
2022-09-06T11:14:09.822Z,4.50
2022-09-06T11:16:39.967Z,4.43
2022-09-06T11:19:07.022Z,3.90
2022-09-06T11:21:34.129Z,4.15
2022-09-06T11:24:01.183Z,3.80
2022-09-06T11:26:28.331Z,4.20
2022-09-06T11:28:55.595Z,4.20
2022-09-06T11:34:10.259Z,4.15
2022-09-06T11:36:37.855Z,4.00
2022-09-06T11:39:04.901Z,4.15
2022-09-06T11:41:31.952Z,4.03
2022-09-06T11:43:59.026Z,4.07
2022-09-06T11:46:26.131Z,4.25
2022-09-06T11:48:53.230Z,3.70
2022-09-06T11:51:20.281Z,3.40
2022-09-06T11:53:47.323Z,3.85
2022-09-06T11:56:14.371Z,3.92
2022-09-06T11:58:41.402Z,3.60
2022-09-06T12:01:08.456Z,3.72
2022-09-06T12:06:23.108Z,4.00
2022-09-06T12:08:53.286Z,3.60
2022-09-06T12:11:20.342Z,3.80
2022-09-06T12:13:47.526Z,3.60
2022-09-06T12:16:14.639Z,3.97
2022-09-06T12:18:41.747Z,3.55
2022-09-06T12:21:08.860Z,3.30
2022-09-06T12:23:35.920Z,3.53
2022-09-06T12:26:02.980Z,3.65
2022-09-06T12:28:30.086Z,3.50
2022-09-06T12:30:57.302Z,3.70
2022-09-06T12:33:24.399Z,3.28
2022-09-06T12:35:59.311Z,3.63
2022-09-06T12:38:27.000Z,3.67
2022-09-06T12:40:58.519Z,3.20
2022-09-06T12:43:25.726Z,3.70
2022-09-06T12:45:52.817Z,3.25
2022-09-06T12:48:19.939Z,3.70
2022-09-06T12:50:46.983Z,3.05
2022-09-06T12:53:15.890Z,3.33
2022-09-06T12:55:43.013Z,3.30
2022-09-06T12:58:10.047Z,3.15
2022-09-06T13:00:37.088Z,3.30
2022-09-06T13:03:04.295Z,3.20
2022-09-06T13:05:31.412Z,3.38
2022-09-06T13:07:58.486Z,3.30
2022-09-06T13:10:25.639Z,3.13
2022-09-06T13:12:53.240Z,3.10
2022-09-06T13:15:20.292Z,3.15
2022-09-06T13:17:47.394Z,3.22
2022-09-06T13:20:14.488Z,3.15
2022-09-06T13:22:41.671Z,3.00
2022-09-06T13:25:08.723Z,3.10
2022-09-06T13:27:36.564Z,2.85
2022-09-06T13:30:03.629Z,3.13
2022-09-06T13:32:30.743Z,3.20
2022-09-06T13:34:57.902Z,3.22
2022-09-06T13:37:25.472Z,3.20
2022-09-06T13:39:52.947Z,3.20
2022-09-06T13:42:20.501Z,2.70
2022-09-06T13:44:47.539Z,2.95
2022-09-06T13:47:14.636Z,3.13
2022-09-06T13:49:41.687Z,3.10
2022-09-06T13:52:08.726Z,2.97
2022-09-06T13:54:35.835Z,2.78
2022-09-06T13:57:02.939Z,3.08
2022-09-06T13:59:30.527Z,3.10
2022-09-06T14:01:57.616Z,3.10
2022-09-06T14:04:25.695Z,2.90
2022-09-06T14:06:52.925Z,2.83
2022-09-06T14:09:19.985Z,3.15
2022-09-06T14:11:48.362Z,2.90
2022-09-06T14:14:15.615Z,2.90
2022-09-06T14:16:42.666Z,2.85
2022-09-06T14:19:09.856Z,2.92
2022-09-06T14:21:37.051Z,2.85
2022-09-06T14:24:04.802Z,3.00
2022-09-06T14:26:31.954Z,2.90
2022-09-06T14:28:59.023Z,2.90
2022-09-06T14:31:26.274Z,2.50
2022-09-06T14:33:53.426Z,2.67
2022-09-06T14:36:20.516Z,2.85
2022-09-06T14:38:47.598Z,2.70
2022-09-06T14:41:14.715Z,3.05
2022-09-06T14:43:41.768Z,2.83
2022-09-06T14:46:08.871Z,3.33
2022-09-06T14:48:39.194Z,2.70
2022-09-06T14:51:09.355Z,2.88
2022-09-06T14:53:40.604Z,3.00
2022-09-06T14:56:08.054Z,2.80
2022-09-06T14:58:35.142Z,3.08
2022-09-06T15:01:02.232Z,2.70
2022-09-06T15:03:29.563Z,2.50
2022-09-06T15:05:56.914Z,2.90
2022-09-06T15:08:23.959Z,2.78
2022-09-06T15:10:50.999Z,2.75
2022-09-06T15:13:18.049Z,2.40
2022-09-06T15:15:45.300Z,2.70
2022-09-06T15:18:12.683Z,2.70
2022-09-06T15:20:40.214Z,2.50
2022-09-06T15:23:25.247Z,2.50
2022-09-06T15:28:23.382Z,2.60
2022-09-06T15:30:50.617Z,2.60
2022-09-06T15:33:19.384Z,2.70
2022-09-06T15:35:46.436Z,2.70
2022-09-06T15:38:13.558Z,2.70
2022-09-06T15:40:40.597Z,2.60
2022-09-06T15:43:07.827Z,2.70
2022-09-06T15:45:34.904Z,2.60
2022-09-06T15:48:01.954Z,2.50
2022-09-06T15:50:49.765Z,2.80
2022-09-06T15:53:16.046Z,2.42
2022-09-06T15:55:58.530Z,3.00
2022-09-06T15:58:26.674Z,2.70
2022-09-06T16:00:54.202Z,2.80
2022-09-06T16:03:21.331Z,2.75
2022-09-06T16:08:35.458Z,2.88
2022-09-06T16:11:03.587Z,3.03
2022-09-06T16:13:30.653Z,2.80
2022-09-06T16:15:57.732Z,2.63
2022-09-06T16:18:25.021Z,2.50
2022-09-06T16:20:52.184Z,2.40
2022-09-06T16:23:19.924Z,2.42
2022-09-06T16:25:46.981Z,2.42
2022-09-06T16:28:14.112Z,2.28
2022-09-06T16:30:41.208Z,2.60
2022-09-06T16:33:08.350Z,2.67
2022-09-06T16:35:35.403Z,2.38
2022-09-06T16:38:02.481Z,2.33
2022-09-06T16:40:30.246Z,2.33
2022-09-06T16:42:57.356Z,2.45
2022-09-06T16:45:24.405Z,2.15
2022-09-06T16:47:51.475Z,2.20
2022-09-06T16:50:18.588Z,2.20
2022-09-06T16:52:45.685Z,2.35
2022-09-06T16:55:12.779Z,2.45
2022-09-06T16:57:39.824Z,2.17
2022-09-06T17:00:06.943Z,2.20
2022-09-06T17:02:34.113Z,1.80
2022-09-06T17:05:01.225Z,2.10
2022-09-06T17:07:28.371Z,1.80
2022-09-06T17:09:55.461Z,2.30
2022-09-06T17:12:22.636Z,2.00
2022-09-06T17:14:49.684Z,2.20
2022-09-06T17:17:17.897Z,1.98
2022-09-06T17:19:44.959Z,2.00
2022-09-06T17:22:12.697Z,1.70
2022-09-06T17:24:40.673Z,1.77
2022-09-06T17:27:07.795Z,1.88
2022-09-06T17:29:34.952Z,1.85
2022-09-06T17:32:03.969Z,1.80
2022-09-06T17:34:31.034Z,1.70
2022-09-06T17:36:58.113Z,1.90
2022-09-06T17:39:25.193Z,1.65
2022-09-06T17:41:53.633Z,1.80
2022-09-06T17:44:20.707Z,1.95
2022-09-06T17:47:09.059Z,1.75
2022-09-06T17:49:34.817Z,2.00
2022-09-06T17:52:01.919Z,2.53
2022-09-06T17:54:29.803Z,2.40
2022-09-06T17:56:57.098Z,3.00
2022-09-06T17:59:24.178Z,2.55
2022-09-06T18:01:51.283Z,2.72
2022-09-06T18:04:19.478Z,2.50
2022-09-06T18:06:47.552Z,2.65
2022-09-06T18:09:15.886Z,2.15
2022-09-06T18:11:45.610Z,2.60
2022-09-06T18:14:12.690Z,2.22
2022-09-06T18:16:40.130Z,2.20
2022-09-06T18:19:07.301Z,2.20
2022-09-06T18:21:34.406Z,2.40
2022-09-06T18:24:01.545Z,2.40
2022-09-06T18:26:28.659Z,2.38
2022-09-06T18:28:55.792Z,2.80
2022-09-06T18:31:22.956Z,2.40
2022-09-06T18:33:50.095Z,2.40
2022-09-06T18:36:17.208Z,2.22
2022-09-06T18:38:44.341Z,2.65
2022-09-06T18:41:31.352Z,2.33
2022-09-06T18:44:02.574Z,2.53
2022-09-06T18:46:29.649Z,2.58
2022-09-06T18:48:56.775Z,7.10
2022-09-06T18:51:23.890Z,6.45
2022-09-06T18:53:52.854Z,3.70
2022-09-06T18:56:19.933Z,3.72
2022-09-06T18:58:47.012Z,3.38
2022-09-06T19:01:14.136Z,3.90
2022-09-06T19:03:41.397Z,3.45
2022-09-06T19:06:08.470Z,3.35
2022-09-06T19:08:35.527Z,3.58
2022-09-06T19:11:03.443Z,3.22
2022-09-06T19:13:30.515Z,3.28
2022-09-06T19:15:57.689Z,3.10
2022-09-06T19:18:24.814Z,3.55
2022-09-06T19:20:52.558Z,3.50
2022-09-06T19:23:19.874Z,3.53
2022-09-06T19:25:46.920Z,3.30
2022-09-06T19:28:14.165Z,3.65
2022-09-06T19:30:41.221Z,3.42
2022-09-06T19:33:08.772Z,3.45
2022-09-06T19:35:38.818Z,3.38
2022-09-06T19:38:10.750Z,3.65
2022-09-06T19:40:37.814Z,3.63
2022-09-06T19:43:04.854Z,3.33
2022-09-06T19:45:32.022Z,3.20
2022-09-06T19:47:59.103Z,3.75
2022-09-06T19:50:26.185Z,3.80
2022-09-06T19:52:53.444Z,3.92
2022-09-06T19:55:20.509Z,3.80
2022-09-06T19:57:47.559Z,3.30
2022-09-06T20:00:14.844Z,3.20
2022-09-06T20:02:42.171Z,3.22
2022-09-06T20:05:09.325Z,3.20
2022-09-06T20:07:36.411Z,3.20
2022-09-06T20:10:03.475Z,3.13
2022-09-06T20:12:32.365Z,3.65
2022-09-06T20:14:59.500Z,3.72
2022-09-06T20:17:33.787Z,2.92
2022-09-06T20:20:01.264Z,3.10
2022-09-06T20:22:28.620Z,3.30
2022-09-06T20:24:55.689Z,2.90
2022-09-06T20:27:22.766Z,3.35
2022-09-06T20:29:49.830Z,3.10
2022-09-06T20:32:16.922Z,3.22
2022-09-06T20:34:44.054Z,3.08
2022-09-06T20:37:11.122Z,3.35
2022-09-06T20:39:38.462Z,2.83
2022-09-06T20:42:05.603Z,2.97
2022-09-06T20:44:32.708Z,3.00
2022-09-06T20:47:01.010Z,3.03
2022-09-06T20:49:28.116Z,3.15
2022-09-06T20:51:55.258Z,2.70
2022-09-06T20:54:22.303Z,2.97
2022-09-06T20:56:50.167Z,3.22
2022-09-06T20:59:17.227Z,3.00
2022-09-06T21:01:44.380Z,3.20
2022-09-06T21:04:11.578Z,2.78
2022-09-06T21:06:38.675Z,2.88
2022-09-06T21:09:05.754Z,2.90
2022-09-06T21:11:33.253Z,2.80
2022-09-06T21:14:00.393Z,2.65
2022-09-06T21:16:28.250Z,2.55
2022-09-06T21:18:55.379Z,2.60
2022-09-06T21:21:22.459Z,2.70
2022-09-06T21:23:49.545Z,2.40
2022-09-06T21:26:17.207Z,3.00
2022-09-06T21:28:44.772Z,3.00
2022-09-06T21:31:12.105Z,2.90
2022-09-06T21:33:40.612Z,3.15
2022-09-06T21:36:07.744Z,2.83
2022-09-06T21:38:34.839Z,2.90
2022-09-06T21:41:02.015Z,2.67
2022-09-06T21:43:29.335Z,2.80
2022-09-06T21:45:58.145Z,3.05
2022-09-06T21:48:25.311Z,2.75
2022-09-06T21:50:52.353Z,2.78
2022-09-06T21:53:19.503Z,2.83
2022-09-06T21:55:46.601Z,2.70
2022-09-06T21:58:13.692Z,2.83
2022-09-06T22:00:40.824Z,3.00
2022-09-06T22:03:08.332Z,2.60
2022-09-06T22:05:35.401Z,2.78
2022-09-06T22:08:02.470Z,2.63
2022-09-06T22:10:29.522Z,2.63
2022-09-06T22:12:56.601Z,2.67
2022-09-06T22:15:23.855Z,2.78
2022-09-06T22:17:50.918Z,3.30
2022-09-06T22:20:17.986Z,2.60
2022-09-06T22:22:46.271Z,2.75
2022-09-06T22:25:13.744Z,3.00
2022-09-06T22:27:40.875Z,2.90
2022-09-06T22:30:07.926Z,2.70
2022-09-06T22:32:34.998Z,2.60
2022-09-06T22:35:03.116Z,2.95
2022-09-06T22:37:30.210Z,2.78
2022-09-06T22:39:57.396Z,3.00
2022-09-06T22:42:24.515Z,3.03
2022-09-06T22:44:51.603Z,2.90
2022-09-06T22:47:18.663Z,2.80
2022-09-06T22:49:45.734Z,2.90
2022-09-06T22:52:12.929Z,2.72
2022-09-06T22:54:39.967Z,2.88
2022-09-06T22:57:07.005Z,2.97
2022-09-06T22:59:34.051Z,2.72
2022-09-06T23:02:01.104Z,2.60
2022-09-06T23:04:28.199Z,2.75
2022-09-06T23:06:55.266Z,3.17
2022-09-06T23:09:22.332Z,3.00
2022-09-06T23:11:49.428Z,2.90
2022-09-06T23:14:16.518Z,3.08
2022-09-06T23:16:43.595Z,2.97
2022-09-06T23:19:10.975Z,2.90
2022-09-06T23:21:38.043Z,2.80
2022-09-06T23:24:05.591Z,2.70
2022-09-06T23:26:32.674Z,2.60
2022-09-06T23:29:00.146Z,2.60
2022-09-06T23:31:27.355Z,2.72
2022-09-06T23:33:54.485Z,2.90
2022-09-06T23:36:21.539Z,2.75
2022-09-06T23:38:48.735Z,2.92
2022-09-06T23:41:15.827Z,2.90
2022-09-06T23:43:42.941Z,2.80
2022-09-06T23:46:10.089Z,2.90
2022-09-06T23:48:37.476Z,3.00
2022-09-06T23:51:04.514Z,3.20
2022-09-06T23:53:31.563Z,2.83
2022-09-06T23:55:58.606Z,2.95
2022-09-06T23:58:25.659Z,2.70
